Time;durP1;ratioP1;P1;durP2;ratioP2;P2;SDS_P1;SDS_P2;PMS_P1;PMS_P2;Temp;Humidity;BMP_temperature;BMP_pressure;BME280_temperature;BME280_humidity;BME280_pressure;Samples;Min_cycle;Max_cycle;Signal;HPM_P1;HPM_P2
2024/01/20 00:01:34;;;;;;;13.17;6.10;;;-8.40;40.00;;;;;;5061017;28;46515;-70
2024/01/20 00:04:00;;;;;;;11.43;6.13;;;-8.50;40.20;;;;;;5064454;28;45785;-72
2024/01/20 00:06:26;;;;;;;9.30;5.00;;;-8.60;40.30;;;;;;5069699;28;47121;-71
2024/01/20 00:08:51;;;;;;;10.10;5.30;;;-8.70;40.40;;;;;;5059598;28;46429;-71
2024/01/20 00:11:17;;;;;;;16.23;6.03;;;-8.80;40.50;;;;;;5064644;28;46668;-72
2024/01/20 00:13:42;;;;;;;10.20;5.10;;;-8.90;40.50;;;;;;5064602;28;46736;-71
2024/01/20 00:16:08;;;;;;;8.30;5.30;;;-8.90;40.60;;;;;;5063396;28;46464;-71
2024/01/20 00:18:33;;;;;;;12.23;5.57;;;-8.90;40.60;;;;;;5061836;28;46546;-71
2024/01/20 00:20:59;;;;;;;10.00;5.47;;;-9.00;40.50;;;;;;5063027;28;46376;-71
2024/01/20 00:23:25;;;;;;;10.27;5.47;;;-9.00;40.50;;;;;;5069726;28;46485;-72
2024/01/20 00:25:50;;;;;;;14.87;5.97;;;-9.00;40.40;;;;;;5063002;28;46527;-71
2024/01/20 00:28:18;;;;;;;9.30;5.30;;;-8.90;40.50;;;;;;5062468;28;45835;-71
2024/01/20 00:30:43;;;;;;;11.05;6.50;;;-8.90;40.50;;;;;;5044474;28;46421;-71
2024/01/20 00:33:09;;;;;;;12.17;5.67;;;-8.90;40.20;;;;;;5073433;28;46405;-71
2024/01/20 00:35:36;;;;;;;9.60;5.27;;;-8.80;40.00;;;;;;5071739;28;46371;-69
2024/01/20 00:38:05;;;;;;;14.88;6.40;;;-8.70;39.70;;;;;;5064087;27;46336;-71
2024/01/20 00:40:30;;;;;;;10.20;6.05;;;-8.60;39.60;;;;;;5059621;28;46563;-70
2024/01/20 00:42:56;;;;;;;11.10;6.60;;;-8.60;39.50;;;;;;5068377;28;46364;-71
2024/01/20 00:45:21;;;;;;;12.77;5.37;;;-8.60;39.50;;;;;;5062005;28;46574;-71
2024/01/20 00:47:47;;;;;;;11.53;5.73;;;-8.70;39.70;;;;;;5073642;28;46487;-71
2024/01/20 00:50:12;;;;;;;11.50;6.00;;;-8.60;39.80;;;;;;5072645;28;46466;-70
2024/01/20 00:52:38;;;;;;;13.93;6.87;;;-8.60;39.80;;;;;;5064107;28;46574;-70
2024/01/20 00:55:04;;;;;;;12.30;6.07;;;-8.50;39.70;;;;;;5066519;28;46427;-71
2024/01/20 00:57:30;;;;;;;12.27;5.50;;;-8.30;39.70;;;;;;5069192;28;46497;-71
2024/01/20 00:59:56;;;;;;;16.00;6.27;;;-8.30;39.60;;;;;;5070504;28;46778;-71
2024/01/20 01:02:23;;;;;;;11.43;6.38;;;-8.20;39.70;;;;;;5075209;28;46366;-70
2024/01/20 01:04:49;;;;;;;17.60;6.10;;;-8.20;39.70;;;;;;5071320;28;46039;-72
2024/01/20 01:07:15;;;;;;;13.07;6.57;;;-8.20;39.70;;;;;;5067168;28;46547;-72
2024/01/20 01:09:40;;;;;;;10.10;5.70;;;-8.10;39.80;;;;;;5065437;28;46504;-71
2024/01/20 01:12:06;;;;;;;11.27;5.67;;;-8.10;39.80;;;;;;5068376;28;46519;-71
2024/01/20 01:14:32;;;;;;;12.00;5.80;;;-8.20;39.70;;;;;;5068645;28;47359;-71
2024/01/20 01:16:57;;;;;;;13.07;6.40;;;-8.20;39.90;;;;;;5068245;28;46336;-70
2024/01/20 01:19:23;;;;;;;10.03;5.63;;;-8.30;40.10;;;;;;5070826;28;46378;-69
2024/01/20 01:21:48;;;;;;;10.37;5.60;;;-8.40;40.20;;;;;;5072630;28;46578;-71
2024/01/20 01:24:14;;;;;;;13.13;6.47;;;-8.40;40.50;;;;;;5067321;28;46340;-72
2024/01/20 01:26:40;;;;;;;9.07;4.70;;;-8.50;40.50;;;;;;5068969;28;46312;-70
2024/01/20 01:29:06;;;;;;;13.02;5.32;;;-8.50;40.50;;;;;;5065677;28;46393;-70
2024/01/20 01:31:32;;;;;;;14.50;6.40;;;-8.50;40.70;;;;;;5073129;28;46405;-72
2024/01/20 01:33:57;;;;;;;16.53;6.13;;;-8.70;40.70;;;;;;5069258;28;46482;-70
2024/01/20 01:36:23;;;;;;;11.33;5.27;;;-8.70;40.80;;;;;;5064079;28;46829;-70
2024/01/20 01:38:49;;;;;;;7.68;4.20;;;-8.90;40.80;;;;;;5068891;28;46415;-70
2024/01/20 01:41:14;;;;;;;10.40;4.97;;;-8.90;41.00;;;;;;5078540;27;46425;-70
2024/01/20 01:43:40;;;;;;;12.63;5.93;;;-9.00;41.00;;;;;;5066368;28;48195;-72
2024/01/20 01:46:06;;;;;;;12.07;5.43;;;-9.00;41.00;;;;;;5067832;28;46524;-71
2024/01/20 01:48:33;;;;;;;8.35;5.13;;;-9.00;40.90;;;;;;5072598;28;46593;-72
2024/01/20 01:51:02;;;;;;;12.13;5.75;;;-9.00;40.90;;;;;;5066431;28;46436;-71
2024/01/20 01:53:28;;;;;;;8.27;4.70;;;-8.90;40.70;;;;;;5067047;28;46480;-71
2024/01/20 01:55:54;;;;;;;9.20;5.00;;;-8.90;40.50;;;;;;5073656;28;46876;-71
2024/01/20 01:58:20;;;;;;;9.00;4.63;;;-8.90;40.30;;;;;;5066003;28;46475;-71
2024/01/20 02:00:46;;;;;;;12.25;5.60;;;-8.90;40.40;;;;;;5049463;28;46405;-72
2024/01/20 02:03:12;;;;;;;9.90;4.70;;;-8.90;40.40;;;;;;5064696;28;46140;-71
2024/01/20 02:05:37;;;;;;;7.67;5.20;;;-9.10;40.50;;;;;;5062199;28;46408;-71
2024/01/20 02:08:05;;;;;;;12.27;5.17;;;-9.20;40.70;;;;;;5057134;28;46628;-72
2024/01/20 02:10:31;;;;;;;12.60;4.82;;;-9.40;40.90;;;;;;5035947;28;46419;-72
2024/01/20 02:12:57;;;;;;;10.88;5.40;;;-9.50;41.10;;;;;;5066541;28;46958;-73
2024/01/20 02:15:24;;;;;;;11.95;4.57;;;-9.60;41.30;;;;;;5065241;28;46094;-72
2024/01/20 02:17:51;;;;;;;8.95;4.78;;;-9.60;41.40;;;;;;5070077;28;45877;-72
2024/01/20 02:20:17;;;;;;;10.57;5.00;;;-9.60;41.50;;;;;;5067620;28;46459;-72
2024/01/20 02:22:43;;;;;;;9.70;4.67;;;-9.70;41.40;;;;;;5058205;28;46490;-73
2024/01/20 02:25:08;;;;;;;6.07;4.47;;;-9.60;41.10;;;;;;5063345;28;46534;-72
2024/01/20 02:27:34;;;;;;;6.47;4.40;;;-9.60;40.90;;;;;;5067199;28;46364;-72
2024/01/20 02:30:00;;;;;;;10.27;5.20;;;-9.60;40.80;;;;;;5069280;28;46464;-71
2024/01/20 02:32:25;;;;;;;8.37;4.60;;;-9.60;40.70;;;;;;5068253;28;46502;-72
2024/01/20 02:34:51;;;;;;;10.20;5.10;;;-9.60;40.60;;;;;;5072957;28;46407;-72
2024/01/20 02:37:16;;;;;;;9.50;4.83;;;-9.60;40.50;;;;;;5065992;28;45803;-72
2024/01/20 02:39:43;;;;;;;8.30;4.60;;;-9.60;40.50;;;;;;5068522;28;46326;-72
2024/01/20 02:42:10;;;;;;;7.22;4.40;;;-9.60;40.40;;;;;;5075025;28;47209;-72
2024/01/20 02:44:37;;;;;;;14.00;5.03;;;-9.40;40.50;;;;;;5070257;28;46413;-72
2024/01/20 02:47:03;;;;;;;13.85;7.28;;;-9.60;40.20;;;;;;5070687;28;46477;-72
2024/01/20 02:49:29;;;;;;;12.43;6.17;;;-9.50;40.20;;;;;;5066102;28;46491;-73
2024/01/20 02:51:54;;;;;;;11.63;6.18;;;-9.40;40.00;;;;;;5048496;28;47371;-73
2024/01/20 02:54:20;;;;;;;11.57;5.97;;;-9.30;40.00;;;;;;5062006;28;46323;-72
2024/01/20 02:56:45;;;;;;;11.40;5.53;;;-9.30;39.80;;;;;;5047606;28;46123;-72
2024/01/20 02:59:11;;;;;;;10.87;5.30;;;-9.30;39.80;;;;;;5067312;28;46587;-72
2024/01/20 03:01:36;;;;;;;11.17;5.07;;;-9.40;39.70;;;;;;5064896;28;46737;-71
2024/01/20 03:04:02;;;;;;;10.70;5.20;;;-9.40;40.00;;;;;;5064289;28;46727;-71
2024/01/20 03:06:28;;;;;;;13.17;5.53;;;-9.30;40.00;;;;;;5048785;28;46396;-71
2024/01/20 03:08:53;;;;;;;8.47;5.10;;;-9.30;40.00;;;;;;5067873;28;46520;-72
2024/01/20 03:11:19;;;;;;;12.70;5.33;;;-9.40;39.80;;;;;;5070792;28;46475;-71
2024/01/20 03:13:44;;;;;;;8.80;4.77;;;-9.50;40.10;;;;;;5068615;28;46365;-71
2024/01/20 03:16:10;;;;;;;11.13;5.03;;;-9.60;40.30;;;;;;5060036;28;46506;-72
2024/01/20 03:18:37;;;;;;;12.17;5.20;;;-9.70;40.50;;;;;;5069203;28;46587;-71
2024/01/20 03:21:03;;;;;;;8.50;4.30;;;-9.70;40.60;;;;;;5066885;28;46363;-72
2024/01/20 03:23:29;;;;;;;8.90;4.35;;;-9.80;40.50;;;;;;5070423;28;46745;-72
2024/01/20 03:25:55;;;;;;;11.87;4.70;;;-9.80;41.70;;;;;;5068221;28;46327;-72
2024/01/20 03:28:21;;;;;;;9.23;3.97;;;-9.90;40.60;;;;;;5060199;28;46613;-72
2024/01/20 03:30:47;;;;;;;9.95;4.28;;;-10.00;40.60;;;;;;5067482;28;46359;-72
2024/01/20 03:33:12;;;;;;;7.00;3.57;;;-10.10;40.70;;;;;;5068038;28;46462;-71
2024/01/20 03:35:38;;;;;;;6.33;3.53;;;-10.30;40.70;;;;;;5070414;28;46461;-72
2024/01/20 03:38:04;;;;;;;6.23;3.40;;;-10.30;41.80;;;;;;5066679;28;46399;-72
2024/01/20 03:40:30;;;;;;;8.15;4.22;;;-10.40;40.80;;;;;;5065184;28;46399;-73
2024/01/20 03:42:55;;;;;;;9.93;4.67;;;-10.50;40.70;;;;;;5066769;28;46511;-73
2024/01/20 03:45:21;;;;;;;6.50;3.60;;;-10.50;40.70;;;;;;5066133;28;46371;-71
2024/01/20 03:47:47;;;;;;;8.63;4.00;;;-10.50;40.50;;;;;;5069986;28;46431;-72
2024/01/20 03:50:12;;;;;;;7.27;4.20;;;-10.40;40.50;;;;;;5060051;28;46314;-72
2024/01/20 03:52:38;;;;;;;9.43;4.90;;;-10.40;40.30;;;;;;5061260;28;46320;-73
2024/01/20 03:55:04;;;;;;;10.73;5.00;;;-10.40;40.20;;;;;;5063245;28;46368;-72
2024/01/20 03:57:29;;;;;;;9.90;4.78;;;-10.40;40.30;;;;;;5066071;28;46515;-72
2024/01/20 03:59:55;;;;;;;6.50;4.57;;;-10.40;40.30;;;;;;5047032;28;47088;-72
2024/01/20 04:02:20;;;;;;;11.83;5.43;;;-10.40;40.30;;;;;;5067725;28;46348;-72
2024/01/20 04:04:46;;;;;;;10.03;4.80;;;-10.40;40.10;;;;;;5065818;28;46367;-72
2024/01/20 04:07:12;;;;;;;15.00;5.60;;;-10.30;40.00;;;;;;5067891;28;46478;-72
2024/01/20 04:09:37;;;;;;;8.80;4.83;;;-10.30;39.90;;;;;;5065227;28;47056;-72
2024/01/20 04:12:04;;;;;;;13.17;5.40;;;-10.30;39.70;;;;;;5070160;27;46461;-72
2024/01/20 04:14:29;;;;;;;8.63;4.55;;;-10.20;39.70;;;;;;5066859;28;46493;-72
2024/01/20 04:16:55;;;;;;;11.03;5.53;;;-10.20;39.60;;;;;;5072734;28;46375;-72
2024/01/20 04:19:20;;;;;;;8.03;4.60;;;-10.20;39.60;;;;;;5073069;28;46503;-72
2024/01/20 04:21:46;;;;;;;8.97;4.90;;;-10.20;39.60;;;;;;5069717;28;46407;-72
2024/01/20 04:24:11;;;;;;;8.17;4.60;;;-10.20;39.70;;;;;;5067943;28;46728;-72
2024/01/20 04:26:37;;;;;;;5.00;3.10;;;-10.20;39.60;;;;;;5067007;28;45895;-73
2024/01/20 04:29:03;;;;;;;8.27;3.57;;;-10.30;39.50;;;;;;5075649;28;46350;-72
2024/01/20 04:31:29;;;;;;;6.37;3.13;;;-10.50;39.70;;;;;;5060235;28;46432;-72
2024/01/20 04:33:55;;;;;;;7.15;3.40;;;-10.40;40.20;;;;;;5067028;28;45907;-72
2024/01/20 04:36:21;;;;;;;8.45;4.05;;;-10.70;39.90;;;;;;5071958;28;46615;-72
2024/01/20 04:38:47;;;;;;;6.70;3.30;;;-10.70;40.10;;;;;;5071948;28;46363;-72
2024/01/20 04:41:12;;;;;;;6.37;3.20;;;-10.80;40.20;;;;;;5067150;28;46529;-72
2024/01/20 04:43:38;;;;;;;9.77;3.60;;;-11.00;40.30;;;;;;5071510;28;45803;-73
2024/01/20 04:46:04;;;;;;;6.33;3.60;;;-11.00;40.30;;;;;;5070006;28;46417;-73
2024/01/20 04:48:31;;;;;;;7.33;3.20;;;-11.00;40.30;;;;;;5064072;28;47094;-73
2024/01/20 04:50:57;;;;;;;8.98;3.40;;;-11.00;40.30;;;;;;5063491;28;46677;-72
2024/01/20 04:53:22;;;;;;;4.95;3.47;;;-11.00;40.20;;;;;;5064962;28;46384;-72
2024/01/20 04:55:49;;;;;;;7.87;3.50;;;-11.10;40.00;;;;;;5067056;28;46621;-72
2024/01/20 04:58:14;;;;;;;7.22;3.92;;;-11.10;40.00;;;;;;5065007;28;46399;-73
2024/01/20 05:00:40;;;;;;;6.90;3.30;;;-11.10;40.00;;;;;;5067736;28;46345;-72
2024/01/20 05:03:05;;;;;;;6.20;3.30;;;-11.10;40.00;;;;;;5071202;28;46407;-72
2024/01/20 05:05:32;;;;;;;7.57;3.60;;;-11.10;39.80;;;;;;5064365;28;46452;-73
2024/01/20 05:07:57;;;;;;;7.47;3.72;;;-11.10;39.60;;;;;;5046112;28;46852;-72
2024/01/20 05:10:23;;;;;;;12.03;5.00;;;-11.00;39.50;;;;;;5064736;28;45908;-73
2024/01/20 05:12:48;;;;;;;12.63;4.50;;;-11.00;39.40;;;;;;5065692;28;46520;-71
2024/01/20 05:15:14;;;;;;;8.27;4.50;;;-10.90;39.40;;;;;;5071189;28;46573;-71
2024/01/20 05:17:39;;;;;;;9.80;3.90;;;-10.90;39.20;;;;;;5067450;28;46406;-71
2024/01/20 05:20:06;;;;;;;6.00;3.23;;;-10.90;39.20;;;;;;5066324;28;46402;-71
2024/01/20 05:22:32;;;;;;;7.90;4.05;;;-10.80;39.00;;;;;;5074782;28;46494;-73
2024/01/20 05:24:57;;;;;;;5.38;3.25;;;-10.80;39.00;;;;;;5062875;28;46400;-72
2024/01/20 05:27:23;;;;;;;8.27;4.30;;;-10.90;38.90;;;;;;5052906;28;48095;-71
2024/01/20 05:29:48;;;;;;;8.70;3.33;;;-10.90;39.10;;;;;;5068874;28;46380;-72
2024/01/20 05:32:17;;;;;;;5.47;3.00;;;-11.00;39.10;;;;;;5071516;28;45863;-70
2024/01/20 05:34:43;;;;;;;3.88;2.80;;;-11.00;39.30;;;;;;5068006;28;46266;-71
2024/01/20 05:37:08;;;;;;;9.30;3.33;;;-11.10;39.30;;;;;;5068900;28;46455;-73
2024/01/20 05:39:34;;;;;;;4.87;2.23;;;-11.20;39.40;;;;;;5055612;28;46411;-71
2024/01/20 05:42:00;;;;;;;5.70;3.33;;;-11.30;39.50;;;;;;5068771;28;46482;-71
2024/01/20 05:44:26;;;;;;;4.65;2.70;;;-11.30;39.50;;;;;;5060373;28;46628;-73
2024/01/20 05:46:52;;;;;;;9.95;3.50;;;-11.30;39.50;;;;;;5063189;28;46455;-73
2024/01/20 05:49:17;;;;;;;7.60;3.23;;;-11.20;39.40;;;;;;5066545;28;46355;-72
2024/01/20 05:51:43;;;;;;;7.23;3.50;;;-11.20;39.10;;;;;;5072767;28;46409;-71
2024/01/20 05:54:08;;;;;;;7.73;3.77;;;-11.10;38.90;;;;;;5067917;28;46427;-72
2024/01/20 05:56:34;;;;;;;6.87;3.97;;;-11.10;38.80;;;;;;5069327;28;46423;-71
2024/01/20 05:58:59;;;;;;;7.10;3.23;;;-11.10;38.70;;;;;;5068180;28;46363;-72
2024/01/20 06:01:25;;;;;;;7.27;3.10;;;-11.10;39.80;;;;;;5071092;28;45852;-71
2024/01/20 06:03:51;;;;;;;10.67;3.67;;;-11.10;38.60;;;;;;5072088;28;46321;-73
2024/01/20 06:06:16;;;;;;;4.10;2.90;;;-11.10;38.50;;;;;;5066212;28;46396;-73
2024/01/20 06:08:42;;;;;;;3.47;2.43;;;-11.10;38.60;;;;;;5067292;28;46369;-73
2024/01/20 06:11:09;;;;;;;7.87;3.47;;;-11.20;38.50;;;;;;5065476;28;46795;-72
2024/01/20 06:13:34;;;;;;;9.43;3.63;;;-11.20;38.80;;;;;;5062442;28;46409;-72
2024/01/20 06:16:00;;;;;;;9.20;2.60;;;-11.30;38.70;;;;;;5071508;28;47321;-72
2024/01/20 06:18:27;;;;;;;6.03;3.13;;;-11.30;38.90;;;;;;5061510;28;46403;-72
2024/01/20 06:20:52;;;;;;;5.05;3.30;;;-11.40;38.90;;;;;;5066935;28;46443;-72
2024/01/20 06:23:18;;;;;;;9.60;3.37;;;-11.40;39.10;;;;;;5066804;28;46369;-71
2024/01/20 06:25:43;;;;;;;8.77;3.73;;;-11.40;39.20;;;;;;5066695;28;47129;-73
2024/01/20 06:28:10;;;;;;;4.27;2.80;;;-11.50;39.00;;;;;;5063570;28;46415;-73
2024/01/20 06:30:35;;;;;;;8.80;3.88;;;-11.50;38.90;;;;;;5066520;28;45905;-73
2024/01/20 06:33:02;;;;;;;4.00;2.87;;;-11.40;38.90;;;;;;5066603;28;46415;-72
2024/01/20 06:35:28;;;;;;;6.43;3.60;;;-11.40;38.90;;;;;;5069997;28;46453;-72
2024/01/20 06:37:53;;;;;;;6.50;2.50;;;-11.40;38.70;;;;;;5058808;28;46437;-71
2024/01/20 06:40:19;;;;;;;5.23;2.93;;;-11.50;38.60;;;;;;5064565;28;46418;-73
2024/01/20 06:42:44;;;;;;;4.17;2.70;;;-11.40;38.60;;;;;;5066570;28;46415;-70
2024/01/20 06:45:10;;;;;;;5.07;3.40;;;-11.40;38.40;;;;;;5064783;28;46400;-70
2024/01/20 06:47:36;;;;;;;6.60;3.43;;;-11.30;38.40;;;;;;5067816;28;46663;-70
2024/01/20 06:50:02;;;;;;;9.32;3.45;;;-11.30;38.30;;;;;;5070369;28;46422;-72
2024/01/20 06:52:30;;;;;;;7.30;3.60;;;-11.30;38.20;;;;;;5053488;28;46425;-71
2024/01/20 06:54:56;;;;;;;6.15;3.90;;;-11.30;38.00;;;;;;5064529;28;46562;-72
2024/01/20 06:57:22;;;;;;;4.87;3.13;;;-11.20;38.00;;;;;;5058348;28;46343;-70
2024/01/20 06:59:47;;;;;;;6.83;3.60;;;-11.10;39.10;;;;;;5071061;28;45816;-70
2024/01/20 07:02:14;;;;;;;7.80;3.97;;;-11.10;37.70;;;;;;5067450;28;46726;-70
2024/01/20 07:04:40;;;;;;;7.30;3.55;;;-11.10;37.50;;;;;;5064371;28;46429;-70
2024/01/20 07:07:06;;;;;;;6.00;3.10;;;-11.00;37.60;;;;;;5064987;28;46457;-71
2024/01/20 07:09:32;;;;;;;7.18;3.60;;;-10.90;37.60;;;;;;5063642;28;46514;-70
2024/01/20 07:11:57;;;;;;;3.83;3.20;;;-11.00;37.50;;;;;;5062631;28;46519;-71
2024/01/20 07:14:26;;;;;;;6.30;3.13;;;-10.80;37.70;;;;;;5062783;28;46437;-72
2024/01/20 07:16:52;;;;;;;6.07;3.47;;;-11.00;37.60;;;;;;5061336;28;46414;-70
2024/01/20 07:19:18;;;;;;;10.03;5.00;;;-10.90;37.70;;;;;;5067616;28;46436;-70
2024/01/20 07:21:43;;;;;;;11.10;5.40;;;-10.90;37.60;;;;;;5066688;28;46462;-70
2024/01/20 07:24:09;;;;;;;7.50;4.03;;;-10.80;37.50;;;;;;5067852;28;46921;-70
2024/01/20 07:26:34;;;;;;;9.23;5.67;;;-10.70;37.50;;;;;;5066424;28;46296;-71
2024/01/20 07:29:00;;;;;;;8.57;4.37;;;-10.60;37.20;;;;;;5065910;28;45919;-71
2024/01/20 07:31:25;;;;;;;5.30;3.80;;;-10.40;37.10;;;;;;5065248;28;46470;-70
2024/01/20 07:33:51;;;;;;;7.90;3.90;;;-10.40;36.70;;;;;;5064273;28;46479;-70
2024/01/20 07:36:16;;;;;;;9.33;3.93;;;-10.40;36.80;;;;;;5065156;28;46521;-70
2024/01/20 07:38:42;;;;;;;6.40;3.57;;;-10.40;36.80;;;;;;5069784;28;46423;-70
2024/01/20 07:41:07;;;;;;;6.37;3.20;;;-10.30;36.80;;;;;;5065856;28;46500;-71
2024/01/20 07:43:33;;;;;;;9.23;4.70;;;-10.30;36.90;;;;;;5063571;28;46423;-71
2024/01/20 07:45:59;;;;;;;8.10;4.07;;;-10.20;37.00;;;;;;5070226;28;46269;-68
2024/01/20 07:48:26;;;;;;;6.40;3.78;;;-10.10;36.70;;;;;;5074837;27;46679;-68
2024/01/20 07:50:52;;;;;;;5.32;3.03;;;-10.20;36.70;;;;;;5063737;28;46446;-66
2024/01/20 07:53:18;;;;;;;7.75;2.85;;;-10.30;36.90;;;;;;5070337;28;46570;-68
2024/01/20 07:55:44;;;;;;;3.70;2.63;;;-10.30;37.00;;;;;;5067762;28;46743;-67
2024/01/20 07:58:09;;;;;;;4.50;2.87;;;-10.20;37.10;;;;;;5069319;28;46771;-69
2024/01/20 08:00:35;;;;;;;6.63;3.40;;;-10.10;37.20;;;;;;5073765;28;46486;-69
2024/01/20 08:03:00;;;;;;;5.83;3.33;;;-10.00;37.10;;;;;;5069188;28;46495;-67
2024/01/20 08:05:26;;;;;;;7.87;3.07;;;-9.90;36.80;;;;;;5067142;28;46484;-67
2024/01/20 08:07:51;;;;;;;11.50;4.60;;;-9.80;36.60;;;;;;5073403;28;46699;-69
2024/01/20 08:10:17;;;;;;;6.13;3.13;;;-9.70;36.10;;;;;;5068517;28;46534;-67
2024/01/20 08:12:43;;;;;;;7.80;3.27;;;-9.70;35.70;;;;;;5072019;28;46539;-67
2024/01/20 08:15:08;;;;;;;5.97;3.40;;;-9.60;35.90;;;;;;5071834;28;46491;-68
2024/01/20 08:17:34;;;;;;;7.50;3.90;;;-9.50;37.10;;;;;;5065932;28;46464;-69
2024/01/20 08:19:59;;;;;;;5.07;2.93;;;-9.40;37.20;;;;;;5060620;28;46368;-68
2024/01/20 08:22:25;;;;;;;6.10;3.10;;;-9.40;36.00;;;;;;5068952;28;46853;-69
2024/01/20 08:24:51;;;;;;;8.23;3.53;;;-9.30;36.10;;;;;;5067639;28;46407;-69
2024/01/20 08:27:18;;;;;;;6.40;3.60;;;-9.20;36.10;;;;;;5073157;28;46373;-66
2024/01/20 08:29:43;;;;;;;5.50;3.95;;;-9.10;36.20;;;;;;5069597;28;46452;-66
2024/01/20 08:32:09;;;;;;;8.00;4.37;;;-8.90;36.50;;;;;;5067134;28;46441;-68
2024/01/20 08:34:34;;;;;;;11.43;5.53;;;-8.70;36.60;;;;;;5065040;28;46494;-67
2024/01/20 08:37:00;;;;;;;8.23;4.77;;;-8.50;36.80;;;;;;5075434;28;46333;-68
2024/01/20 08:39:25;;;;;;;8.07;4.73;;;-8.30;36.10;;;;;;5072295;28;46462;-68
2024/01/20 08:41:51;;;;;;;17.60;6.50;;;-8.20;35.70;;;;;;5068605;28;46459;-69
2024/01/20 08:44:17;;;;;;;21.20;7.03;;;-8.00;35.50;;;;;;5070625;28;46482;-68
2024/01/20 08:46:42;;;;;;;17.67;7.33;;;-7.80;35.30;;;;;;5064544;28;46143;-68
2024/01/20 08:49:08;;;;;;;60.57;14.90;;;-7.70;35.00;;;;;;5069458;28;46401;-68
2024/01/20 08:51:34;;;;;;;29.00;12.67;;;-7.60;34.90;;;;;;5067894;28;46664;-67
2024/01/20 08:53:59;;;;;;;25.13;9.70;;;-7.40;35.00;;;;;;5069457;28;46320;-68
2024/01/20 08:56:25;;;;;;;12.53;5.53;;;-7.20;35.00;;;;;;5072035;28;46477;-68
2024/01/20 08:58:51;;;;;;;10.18;4.90;;;-7.10;35.00;;;;;;5062255;27;46701;-68
2024/01/20 09:01:17;;;;;;;12.17;5.93;;;-7.00;35.00;;;;;;5066432;28;46472;-68
2024/01/20 09:03:42;;;;;;;12.23;5.00;;;-6.90;34.90;;;;;;5065461;28;45983;-68
2024/01/20 09:06:11;;;;;;;10.23;5.07;;;-6.80;35.00;;;;;;5063029;28;46470;-68
2024/01/20 09:08:37;;;;;;;9.02;4.25;;;-6.80;35.00;;;;;;5068381;28;46419;-68
2024/01/20 09:11:03;;;;;;;8.77;4.80;;;-6.70;35.10;;;;;;5063235;28;46568;-68
2024/01/20 09:13:29;;;;;;;10.52;5.28;;;-6.60;35.20;;;;;;5066235;28;46467;-66
2024/01/20 09:15:54;;;;;;;11.13;4.37;;;-6.50;35.10;;;;;;5067186;28;46571;-68
2024/01/20 09:18:20;;;;;;;12.63;5.77;;;-6.40;35.10;;;;;;5070344;28;46368;-68
2024/01/20 09:20:46;;;;;;;10.83;5.50;;;-6.20;35.00;;;;;;5063403;28;46094;-68
2024/01/20 09:23:11;;;;;;;10.03;4.90;;;-6.10;35.00;;;;;;5064709;28;46492;-68
2024/01/20 09:25:37;;;;;;;18.17;6.60;;;-5.90;35.10;;;;;;5069693;28;46344;-68
2024/01/20 09:28:06;;;;;;;18.20;6.30;;;-5.80;35.10;;;;;;5062600;28;46559;-68
2024/01/20 09:30:31;;;;;;;12.10;6.60;;;-5.60;35.20;;;;;;5065115;28;47169;-68
2024/01/20 09:32:57;;;;;;;10.27;5.40;;;-5.40;35.40;;;;;;5065235;28;45870;-69
2024/01/20 09:35:23;;;;;;;9.65;5.28;;;-5.30;35.20;;;;;;5056931;28;46392;-69
2024/01/20 09:37:49;;;;;;;9.30;5.33;;;-5.10;35.10;;;;;;5066852;28;46374;-68
2024/01/20 09:40:18;;;;;;;12.40;5.80;;;-4.90;35.00;;;;;;5080350;22;47545;-68
2024/01/20 09:42:44;;;;;;;10.43;5.25;;;-4.60;34.80;;;;;;5123547;27;46506;-67
2024/01/20 09:45:10;;;;;;;7.90;4.77;;;-4.70;34.80;;;;;;5109646;27;46407;-68
2024/01/20 09:47:36;;;;;;;13.00;4.95;;;-4.50;34.80;;;;;;5106158;27;46426;-68
2024/01/20 09:50:04;;;;;;;12.97;6.90;;;-4.40;34.60;;;;;;5100798;27;46481;-68
2024/01/20 09:52:31;;;;;;;9.50;4.65;;;-4.30;34.50;;;;;;5097586;27;46599;-67
2024/01/20 09:55:11;;;;;;;8.40;4.70;;;-4.20;34.60;;;;;;5085664;27;46288;-67
2024/01/20 09:57:41;;;;;;;11.00;4.53;;;-4.20;34.60;;;;;;5086098;27;46471;-68
2024/01/20 10:00:08;;;;;;;13.70;5.22;;;-4.10;35.00;;;;;;5097362;27;46353;-68
2024/01/20 10:02:35;;;;;;;7.78;4.32;;;-4.10;35.10;;;;;;5089094;27;46441;-68
2024/01/20 10:05:04;;;;;;;10.10;5.18;;;-4.10;35.50;;;;;;5104221;27;46779;-68
2024/01/20 10:07:30;;;;;;;6.68;4.30;;;-4.10;35.30;;;;;;5096926;27;46846;-68
2024/01/20 10:09:57;;;;;;;7.40;4.22;;;-3.90;35.50;;;;;;5091444;27;46342;-68
2024/01/20 10:12:25;;;;;;;11.13;4.55;;;-3.90;35.20;;;;;;5092633;27;46473;-68
2024/01/20 10:14:52;;;;;;;10.00;4.95;;;-3.60;35.30;;;;;;5103926;27;46379;-68
2024/01/20 10:17:18;;;;;;;6.07;3.40;;;-3.60;35.00;;;;;;5102776;27;46416;-68
2024/01/20 10:19:43;;;;;;;7.20;4.10;;;-3.50;35.10;;;;;;5096040;27;46416;-69
2024/01/20 10:22:10;;;;;;;7.30;4.27;;;-3.50;35.10;;;;;;5090812;27;46324;-70
2024/01/20 10:24:49;;;;;;;6.63;4.18;;;-3.40;35.10;;;;;;5098860;27;46674;-68
2024/01/20 10:27:16;;;;;;;8.82;4.15;;;-3.20;35.00;;;;;;5091813;27;47020;-67
2024/01/20 10:29:42;;;;;;;5.03;3.40;;;-3.20;35.00;;;;;;5096646;27;47313;-67
2024/01/20 10:32:08;;;;;;;6.70;3.83;;;-3.00;34.90;;;;;;5089677;27;46504;-67
2024/01/20 10:34:34;;;;;;;6.28;3.88;;;-3.00;34.70;;;;;;5087330;27;46447;-67
2024/01/20 10:37:01;;;;;;;6.33;3.60;;;-2.90;34.80;;;;;;5094706;27;46700;-67
2024/01/20 10:39:27;;;;;;;7.10;3.75;;;-2.80;34.80;;;;;;5096036;27;47048;-67
2024/01/20 10:41:55;;;;;;;6.47;4.00;;;-2.80;34.80;;;;;;5094844;27;46358;-67
2024/01/20 10:44:23;;;;;;;5.70;3.58;;;-2.80;34.80;;;;;;5098099;27;46405;-67
2024/01/20 10:46:53;;;;;;;7.60;4.32;;;-2.80;35.00;;;;;;5091762;27;46439;-66
2024/01/20 10:49:22;;;;;;;14.60;3.75;;;-2.70;34.80;;;;;;5088852;27;46666;-67
2024/01/20 10:51:48;;;;;;;7.10;4.03;;;-2.70;34.50;;;;;;5098433;27;46744;-67
2024/01/20 10:54:14;;;;;;;7.03;3.70;;;-2.70;34.30;;;;;;5098058;27;46709;-68
2024/01/20 10:56:40;;;;;;;9.63;4.30;;;-2.60;34.50;;;;;;5091098;27;46394;-69
2024/01/20 10:59:17;;;;;;;7.83;3.90;;;-2.60;34.60;;;;;;5093407;27;46362;-75
2024/01/20 11:01:45;;;;;;;7.85;3.72;;;-2.50;34.70;;;;;;5092373;27;46474;-74
2024/01/20 11:04:17;;;;;;;6.13;3.53;;;-2.50;34.80;;;;;;5092331;27;46540;-73
2024/01/20 11:06:44;;;;;;;6.50;2.70;;;-2.40;34.80;;;;;;5091403;27;45912;-73
2024/01/20 11:09:19;;;;;;;4.00;2.80;;;-2.30;34.60;;;;;;5091424;27;47159;-75
2024/01/20 11:12:07;;;;;;;6.13;3.22;;;-2.30;34.40;;;;;;5087708;27;46063;-71
2024/01/20 11:14:33;;;;;;;4.47;2.80;;;-2.20;34.50;;;;;;5090669;27;46431;-72
2024/01/20 11:17:12;;;;;;;5.55;3.10;;;-2.20;34.70;;;;;;5089429;27;46603;-73
2024/01/20 11:19:38;;;;;;;4.78;3.53;;;-2.20;34.90;;;;;;5091060;27;47289;-72
2024/01/20 11:22:04;;;;;;;7.40;3.50;;;-2.20;35.00;;;;;;5091693;27;46310;-72
2024/01/20 11:24:41;;;;;;;3.92;2.80;;;-2.20;34.70;;;;;;5092647;27;46409;-72
2024/01/20 11:27:07;;;;;;;9.10;4.70;;;-2.10;34.50;;;;;;5093379;27;46441;-71
2024/01/20 11:29:32;;;;;;;10.77;6.00;;;-2.10;34.70;;;;;;5092830;27;46794;-70
2024/01/20 11:31:58;;;;;;;11.00;5.40;;;-1.90;34.60;;;;;;5093673;27;46552;-74
2024/01/20 11:34:25;;;;;;;8.48;5.20;;;-1.90;34.50;;;;;;5094520;27;46430;-71
2024/01/20 11:36:52;;;;;;;10.47;6.27;;;-1.90;34.70;;;;;;5093685;27;46381;-72
2024/01/20 11:39:19;;;;;;;11.27;6.13;;;-1.80;34.80;;;;;;5090348;27;46433;-73
2024/01/20 11:41:46;;;;;;;9.90;6.15;;;-1.80;34.80;;;;;;5091661;27;46554;-71
2024/01/20 11:44:11;;;;;;;10.82;6.55;;;-1.70;34.70;;;;;;5091398;27;46485;-71
2024/01/20 11:46:37;;;;;;;12.43;6.67;;;-1.70;34.50;;;;;;5095441;27;46565;-73
2024/01/20 11:49:03;;;;;;;14.50;7.07;;;-1.60;34.40;;;;;;5093381;27;46443;-71
2024/01/20 11:51:29;;;;;;;12.17;7.07;;;-1.60;34.10;;;;;;5095854;27;46421;-72
2024/01/20 11:53:54;;;;;;;12.10;6.80;;;-1.60;34.20;;;;;;5090307;27;46530;-72
2024/01/20 11:56:20;;;;;;;10.70;6.87;;;-1.50;34.10;;;;;;5091285;27;46517;-71
2024/01/20 11:58:45;;;;;;;17.30;7.40;;;-1.50;34.00;;;;;;5094363;27;45908;-70
2024/01/20 12:01:13;;;;;;;10.83;7.10;;;-1.50;34.10;;;;;;5095797;27;46269;-71
2024/01/20 12:03:40;;;;;;;12.82;7.78;;;-1.50;34.10;;;;;;5087310;27;46432;-70
2024/01/20 12:06:10;;;;;;;14.57;7.05;;;-1.50;34.30;;;;;;5090869;27;46494;-71
2024/01/20 12:08:36;;;;;;;14.50;7.00;;;-1.50;34.20;;;;;;5094557;27;46449;-73
2024/01/20 12:11:02;;;;;;;12.00;6.10;;;-1.40;34.30;;;;;;5089066;27;46627;-72
2024/01/20 12:13:32;;;;;;;9.00;5.43;;;-1.40;34.30;;;;;;5093820;27;46366;-70
2024/01/20 12:15:59;;;;;;;7.43;5.07;;;-1.30;34.40;;;;;;5097041;27;45855;-70
2024/01/20 12:18:26;;;;;;;10.73;5.20;;;-1.20;34.30;;;;;;5089446;27;48074;-71
2024/01/20 12:20:51;;;;;;;9.10;3.88;;;-1.20;34.30;;;;;;5091865;27;46613;-69
2024/01/20 12:23:20;;;;;;;6.83;4.20;;;-1.20;34.50;;;;;;5088647;27;46351;-71
2024/01/20 12:25:50;;;;;;;9.18;4.25;;;-1.30;34.80;;;;;;5089500;27;46437;-72
2024/01/20 12:28:17;;;;;;;6.22;3.97;;;-1.30;35.00;;;;;;5090728;27;46188;-72
2024/01/20 12:30:42;;;;;;;9.20;4.63;;;-1.30;35.00;;;;;;5094836;27;46404;-69
2024/01/20 12:33:08;;;;;;;11.37;4.60;;;-1.30;35.10;;;;;;5090582;27;45812;-70